createdAt,value
2023-05-08T00:02:14.919Z,4.68
2023-05-08T00:07:17.700Z,5.18
2023-05-08T00:12:22.508Z,5.00
2023-05-08T00:17:25.487Z,5.78
2023-05-08T00:22:29.232Z,5.18
2023-05-08T00:32:36.339Z,4.85
2023-05-08T00:37:41.109Z,5.43
2023-05-08T00:42:44.188Z,5.25
2023-05-08T00:47:48.504Z,5.80
2023-05-08T00:52:51.500Z,5.28
2023-05-08T00:57:54.275Z,5.17
2023-05-08T01:02:58.384Z,5.80
2023-05-08T01:08:00.942Z,5.53
2023-05-08T01:13:07.092Z,5.85
2023-05-08T01:18:14.350Z,6.05
2023-05-08T01:23:29.466Z,6.20
2023-05-08T01:28:45.932Z,6.05
2023-05-08T01:33:52.372Z,6.25
2023-05-08T01:38:57.424Z,6.32
2023-05-08T01:44:05.728Z,6.63
2023-05-08T01:49:11.183Z,6.13
2023-05-08T01:54:17.246Z,6.68
2023-05-08T01:59:23.131Z,6.50
2023-05-08T02:04:28.277Z,6.85
2023-05-08T02:09:32.373Z,6.68
2023-05-08T02:14:36.420Z,8.60
2023-05-08T02:19:42.617Z,6.72
2023-05-08T02:24:46.290Z,7.03
2023-05-08T02:29:49.219Z,5.63
2023-05-08T02:35:02.548Z,6.47
2023-05-08T02:40:08.016Z,5.70
2023-05-08T02:45:12.476Z,5.68
2023-05-08T02:50:19.199Z,5.82
2023-05-08T02:55:25.602Z,5.25
2023-05-08T03:00:30.370Z,4.57
2023-05-08T03:05:36.281Z,5.07
2023-05-08T03:10:40.802Z,4.80
2023-05-08T03:15:46.421Z,5.20
2023-05-08T03:20:52.192Z,4.70
2023-05-08T03:25:56.092Z,5.05
2023-05-08T03:36:03.030Z,4.55
2023-05-08T03:41:06.239Z,4.57
2023-05-08T03:46:09.234Z,5.47
2023-05-08T03:51:13.561Z,4.93
2023-05-08T03:56:16.726Z,4.93
2023-05-08T04:01:22.691Z,5.28
2023-05-08T04:06:38.790Z,5.15
2023-05-08T04:11:49.023Z,5.00
2023-05-08T04:16:53.259Z,5.03
2023-05-08T04:21:59.901Z,4.68
2023-05-08T04:27:03.154Z,5.00
2023-05-08T04:32:07.098Z,5.43
2023-05-08T04:37:23.736Z,4.43
2023-05-08T04:42:27.232Z,4.13
2023-05-08T04:47:30.123Z,4.45
2023-05-08T04:52:34.445Z,5.28
2023-05-08T04:57:36.977Z,4.78
2023-05-08T05:02:41.335Z,4.80
2023-05-08T05:07:45.663Z,5.03
2023-05-08T05:12:48.480Z,4.47
2023-05-08T05:17:51.081Z,4.67
2023-05-08T05:22:55.238Z,4.05
2023-05-08T05:27:57.969Z,4.70
2023-05-08T05:33:00.799Z,4.93
2023-05-08T05:38:05.880Z,5.30
2023-05-08T05:43:08.863Z,4.82
2023-05-08T05:48:11.513Z,4.43
2023-05-08T05:53:16.507Z,4.95
2023-05-08T05:58:19.522Z,5.25
2023-05-08T06:03:22.213Z,5.13
2023-05-08T06:08:26.805Z,4.75
2023-05-08T06:13:29.625Z,5.68
2023-05-08T06:18:32.786Z,5.00
2023-05-08T06:23:37.318Z,5.30
2023-05-08T06:28:40.116Z,5.38
2023-05-08T06:33:42.994Z,4.97
2023-05-08T06:38:47.369Z,4.63
2023-05-08T06:43:50.197Z,4.53
2023-05-08T06:48:52.948Z,5.67
2023-05-08T06:53:56.868Z,5.22
2023-05-08T06:59:07.942Z,5.05
2023-05-08T07:04:11.649Z,4.57
2023-05-08T07:09:17.115Z,5.05
2023-05-08T07:14:20.031Z,5.53
2023-05-08T07:19:22.824Z,4.90
2023-05-08T07:24:27.346Z,5.23
2023-05-08T07:29:30.332Z,5.35
2023-05-08T07:34:35.314Z,5.35
2023-05-08T07:39:42.039Z,5.30
2023-05-08T07:44:53.565Z,5.22
2023-05-08T07:49:59.068Z,5.00
2023-05-08T07:55:03.226Z,5.03
2023-05-08T08:00:07.128Z,5.88
2023-05-08T08:05:10.262Z,5.35
2023-05-08T08:10:14.306Z,6.07
2023-05-08T08:15:17.353Z,5.38
2023-05-08T08:20:20.538Z,6.22
2023-05-08T08:30:27.059Z,5.72
2023-05-08T08:35:30.326Z,6.20
2023-05-08T08:40:33.006Z,6.68
2023-05-08T08:45:37.127Z,6.05
2023-05-08T08:50:43.217Z,6.53
2023-05-08T08:55:48.110Z,8.32
2023-05-08T09:00:52.510Z,6.97
2023-05-08T09:05:55.752Z,6.78
2023-05-08T09:10:59.583Z,6.78
2023-05-08T09:16:07.631Z,7.22
2023-05-08T09:21:10.892Z,6.88
2023-05-08T09:26:27.858Z,7.53
2023-05-08T09:31:37.356Z,7.35
2023-05-08T09:36:42.123Z,8.00
2023-05-08T09:41:57.485Z,7.45
2023-05-08T09:47:12.204Z,9.23
2023-05-08T09:52:17.091Z,8.23
2023-05-08T09:57:20.011Z,7.85
2023-05-08T10:02:26.199Z,9.02
2023-05-08T10:07:30.756Z,8.75
2023-05-08T10:12:33.547Z,8.40
2023-05-08T10:17:40.268Z,9.50
2023-05-08T10:22:44.405Z,8.85
2023-05-08T10:27:50.922Z,9.45
2023-05-08T10:32:56.094Z,9.07
2023-05-08T10:38:02.334Z,8.98
2023-05-08T10:43:06.288Z,8.60
2023-05-08T10:48:14.759Z,11.13
2023-05-08T10:53:18.732Z,10.35
2023-05-08T10:58:32.014Z,10.52
2023-05-08T11:03:40.313Z,10.02
2023-05-08T11:08:50.358Z,9.88
2023-05-08T11:13:54.527Z,11.63
2023-05-08T11:19:20.953Z,11.38
2023-05-08T11:24:33.653Z,10.77
2023-05-08T11:29:37.678Z,10.18
2023-05-08T11:34:48.830Z,9.63
2023-05-08T11:39:53.248Z,9.97
2023-05-08T11:45:02.156Z,10.07
2023-05-08T11:50:05.004Z,10.30
2023-05-08T11:55:12.151Z,9.77
2023-05-08T12:00:16.318Z,10.23
2023-05-08T12:05:27.416Z,9.50
2023-05-08T12:10:31.716Z,10.05
2023-05-08T12:15:34.770Z,10.25
2023-05-08T12:20:37.341Z,10.50
2023-05-08T12:25:41.655Z,9.35
2023-05-08T12:30:44.406Z,10.40
2023-05-08T12:35:47.396Z,8.93
2023-05-08T12:40:52.977Z,9.27
2023-05-08T12:45:55.992Z,10.07
2023-05-08T12:51:03.436Z,9.48
2023-05-08T12:56:09.944Z,9.52
2023-05-08T13:01:13.751Z,10.18
2023-05-08T13:06:22.935Z,11.00
2023-05-08T13:11:34.405Z,9.93
2023-05-08T13:16:43.620Z,9.85
2023-05-08T13:21:47.659Z,9.70
2023-05-08T13:26:51.698Z,9.15
2023-05-08T13:31:54.423Z,10.27
2023-05-08T13:36:57.098Z,8.45
2023-05-08T13:42:01.011Z,9.40
2023-05-08T13:47:03.604Z,8.60
2023-05-08T13:52:06.520Z,7.95
2023-05-08T13:57:10.742Z,8.10
2023-05-08T14:02:13.954Z,7.53
2023-05-08T14:07:18.340Z,6.15
2023-05-08T14:12:22.271Z,7.10
2023-05-08T14:17:24.901Z,6.80
2023-05-08T14:22:27.727Z,8.75
2023-05-08T14:27:31.853Z,8.60
2023-05-08T14:32:34.743Z,7.35
2023-05-08T14:37:37.474Z,8.20
2023-05-08T14:42:41.603Z,8.15
2023-05-08T14:47:44.329Z,8.68
2023-05-08T14:52:46.912Z,9.80
2023-05-08T14:57:51.268Z,9.25
2023-05-08T15:02:53.914Z,8.15
2023-05-08T15:07:57.308Z,8.40
2023-05-08T15:13:01.310Z,8.45
2023-05-08T15:18:04.369Z,6.85
2023-05-08T15:23:07.287Z,7.40
2023-05-08T15:28:11.276Z,7.40
2023-05-08T15:33:13.794Z,7.15
2023-05-08T15:38:16.720Z,8.10
2023-05-08T15:43:21.130Z,8.15
2023-05-08T15:48:24.125Z,8.05
2023-05-08T15:53:27.338Z,7.72
2023-05-08T16:03:34.467Z,7.60
2023-05-08T16:08:37.478Z,8.48
2023-05-08T16:13:40.471Z,7.32
2023-05-08T16:18:49.204Z,8.15
2023-05-08T16:23:53.125Z,7.60
2023-05-08T16:33:59.860Z,6.45
2023-05-08T16:39:02.858Z,5.88
2023-05-08T16:44:05.934Z,9.10
2023-05-08T16:49:11.734Z,7.82
2023-05-08T16:54:15.415Z,7.95
2023-05-08T16:59:18.008Z,6.20
2023-05-08T17:04:22.066Z,8.43
2023-05-08T17:09:25.322Z,8.00
2023-05-08T17:14:27.894Z,6.13
2023-05-08T17:19:31.881Z,5.73
2023-05-08T17:24:36.411Z,6.95
2023-05-08T17:29:39.399Z,8.00
2023-05-08T17:34:43.410Z,6.80
2023-05-08T17:39:46.840Z,7.78
2023-05-08T17:49:54.075Z,7.00
2023-05-08T17:54:56.691Z,8.73
2023-05-08T17:59:59.340Z,7.90
2023-05-08T18:05:03.980Z,7.82
2023-05-08T18:10:07.276Z,7.68
2023-05-08T18:15:10.505Z,7.90
2023-05-08T18:20:15.369Z,8.38
2023-05-08T18:25:18.523Z,7.88
2023-05-08T18:30:21.720Z,7.95
2023-05-08T18:35:25.752Z,8.55
2023-05-08T18:40:28.317Z,8.85
2023-05-08T18:45:32.355Z,9.15
2023-05-08T18:50:37.923Z,8.80
2023-05-08T18:55:41.987Z,7.63
2023-05-08T19:05:48.796Z,6.18
2023-05-08T19:10:52.905Z,8.57
2023-05-08T19:15:55.591Z,8.15
2023-05-08T19:21:00.350Z,8.80
2023-05-08T19:26:02.983Z,7.40
2023-05-08T19:31:05.653Z,9.50
2023-05-08T19:36:09.974Z,7.93
2023-05-08T19:41:13.711Z,4.90
2023-05-08T19:46:17.216Z,8.70
2023-05-08T19:51:21.848Z,9.15
2023-05-08T19:56:24.852Z,9.18
2023-05-08T20:01:28.188Z,8.77
2023-05-08T20:06:32.887Z,5.70
2023-05-08T20:11:36.027Z,8.52
2023-05-08T20:16:39.009Z,7.95
2023-05-08T20:21:43.993Z,9.57
2023-05-08T20:26:46.804Z,8.30
2023-05-08T20:31:49.926Z,9.13
2023-05-08T20:36:57.784Z,9.50
2023-05-08T20:42:00.549Z,9.05
2023-05-08T20:47:03.173Z,9.10
2023-05-08T20:52:08.219Z,8.70
2023-05-08T20:57:12.937Z,9.32
2023-05-08T21:02:15.457Z,8.93
2023-05-08T21:07:19.939Z,9.07
2023-05-08T21:12:22.885Z,9.50
2023-05-08T21:17:25.512Z,10.00
2023-05-08T21:22:29.607Z,8.73
2023-05-08T21:27:32.256Z,9.10
2023-05-08T21:32:34.956Z,8.65
2023-05-08T21:37:39.543Z,9.13
2023-05-08T21:42:42.347Z,9.02
2023-05-08T21:47:45.333Z,8.40
2023-05-08T21:52:49.282Z,8.53
2023-05-08T22:02:54.582Z,7.75
2023-05-08T22:07:58.545Z,8.65
2023-05-08T22:18:04.594Z,8.70
2023-05-08T22:23:08.505Z,5.13
2023-05-08T22:33:14.121Z,7.50
2023-05-08T22:38:17.997Z,7.35
2023-05-08T22:43:20.653Z,8.20
2023-05-08T22:48:23.260Z,7.95
2023-05-08T22:53:27.512Z,7.57
2023-05-08T22:58:30.221Z,4.82
2023-05-08T23:03:33.328Z,6.80
2023-05-08T23:08:37.295Z,7.30
2023-05-08T23:18:43.067Z,6.00
2023-05-08T23:23:47.960Z,7.60
2023-05-08T23:28:50.613Z,7.82
2023-05-08T23:33:53.157Z,7.93
2023-05-08T23:38:57.174Z,7.13
2023-05-08T23:49:05.646Z,6.97
2023-05-08T23:54:09.910Z,6.95
2023-05-08T23:59:13.050Z,6.85
